Time;durP1;ratioP1;P1;durP2;ratioP2;P2;SDS_P1;SDS_P2;PMS_P1;PMS_P2;Temp;Humidity;BMP_temperature;BMP_pressure;BME280_temperature;BME280_humidity;BME280_pressure;Samples;Min_cycle;Max_cycle;Signal;HPM_P1;HPM_P2
2022/06/10 00:00:31;;;;;;;;;;;23.20;94.70;;;;;;5061687;28;19932;-61
2022/06/10 00:02:58;;;;;;;;;;;23.20;94.70;;;;;;5057021;28;19936;-61
2022/06/10 00:05:27;;;;;;;;;;;23.20;94.70;;;;;;5066078;28;19928;-60
2022/06/10 00:07:54;;;;;;;;;;;23.20;94.70;;;;;;5062042;28;19932;-62
2022/06/10 00:10:22;;;;;;;;;;;23.20;94.60;;;;;;5069949;28;19928;-60
2022/06/10 00:12:50;;;;;;;;;;;23.20;94.60;;;;;;5061929;28;19932;-60
2022/06/10 00:15:18;;;;;;;;;;;23.20;94.60;;;;;;5071282;28;20310;-61
2022/06/10 00:17:45;;;;;;;;;;;23.20;94.70;;;;;;5071212;28;19939;-61
2022/06/10 00:20:14;;;;;;;;;;;23.10;94.60;;;;;;5073114;28;19928;-60
2022/06/10 00:22:41;;;;;;;;;;;23.10;94.60;;;;;;5065946;28;19935;-58
2022/06/10 00:25:08;;;;;;;;;;;23.10;94.60;;;;;;5066698;28;20023;-61
2022/06/10 00:27:36;;;;;;;;;;;23.10;94.60;;;;;;5065215;28;19935;-60
2022/06/10 00:30:04;;;;;;;;;;;23.10;94.60;;;;;;5059931;28;19929;-60
2022/06/10 00:32:31;;;;;;;;;;;23.10;94.70;;;;;;5058337;28;19936;-62
2022/06/10 00:34:58;;;;;;;;;;;23.10;94.60;;;;;;5060107;28;20276;-60
2022/06/10 00:37:25;;;;;;;;;;;23.10;94.60;;;;;;5071921;28;19931;-62
2022/06/10 00:39:53;;;;;;;;;;;23.10;94.70;;;;;;5069326;28;20371;-59
2022/06/10 00:42:20;;;;;;;;;;;23.10;94.70;;;;;;5072026;28;20286;-59
2022/06/10 00:44:54;;;;;;;;;;;23.10;94.70;;;;;;5072092;28;19928;-63
2022/06/10 00:47:33;;;;;;;;;;;23.10;94.70;;;;;;5066894;28;19940;-62
2022/06/10 00:50:13;;;;;;;;;;;23.10;94.70;;;;;;5056173;28;19940;-60
2022/06/10 00:52:50;;;;;;;;;;;23.10;94.70;;;;;;5062380;28;19995;-61
2022/06/10 00:55:17;;;;;;;;;;;23.10;94.70;;;;;;5055338;28;20440;-61
2022/06/10 00:57:45;;;;;;;;;;;23.10;94.60;;;;;;5058117;28;19940;-58
2022/06/10 01:00:17;;;;;;;;;;;23.10;94.70;;;;;;5065646;28;19936;-59
2022/06/10 01:02:44;;;;;;;;;;;23.00;94.60;;;;;;5059326;28;19928;-62
2022/06/10 01:05:14;;;;;;;;;;;23.00;94.70;;;;;;5069259;28;19925;-60
2022/06/10 01:07:45;;;;;;;;;;;23.00;94.60;;;;;;5059366;28;19951;-57
2022/06/10 01:10:13;;;;;;;;;;;23.00;94.60;;;;;;5054052;28;19928;-62
2022/06/10 01:12:40;;;;;;;;;;;23.10;94.60;;;;;;5058530;28;19924;-61
2022/06/10 01:15:14;;;;;;;;;;;23.10;94.70;;;;;;5061047;28;19932;-62
2022/06/10 01:18:01;;;;;;;;;;;23.00;94.60;;;;;;5057802;28;19929;-61
2022/06/10 01:20:38;;;;;;;;;;;23.00;94.60;;;;;;5059806;28;19924;-60
2022/06/10 01:23:05;;;;;;;;;;;23.00;94.70;;;;;;5064576;28;19928;-60
2022/06/10 01:25:50;;;;;;;;;;;23.00;94.70;;;;;;5053077;28;20257;-60
2022/06/10 01:28:36;;;;;;;;;;;23.00;94.70;;;;;;5061757;28;19928;-62
2022/06/10 01:31:24;;;;;;;;;;;23.00;94.70;;;;;;5067872;28;19928;-59
2022/06/10 01:34:02;;;;;;;;;;;23.00;94.70;;;;;;5058851;28;19924;-62
2022/06/10 01:36:52;;;;;;;;;;;23.00;94.70;;;;;;5068676;28;19940;-61
2022/06/10 01:39:38;;;;;;;;;;;23.00;94.80;;;;;;5052411;28;20031;-63
2022/06/10 01:42:34;;;;;;;;;;;23.00;94.70;;;;;;5057910;28;20735;-61
2022/06/10 01:45:01;;;;;;;;;;;23.00;94.80;;;;;;5055432;28;19924;-60
2022/06/10 01:47:58;;;;;;;;;;;23.00;94.80;;;;;;5066700;28;19924;-59
2022/06/10 01:50:41;;;;;;;;;;;23.00;94.80;;;;;;5049431;28;19935;-58
2022/06/10 01:53:12;;;;;;;;;;;23.00;94.80;;;;;;5069333;28;19935;-61
2022/06/10 01:55:43;;;;;;;;;;;23.00;94.90;;;;;;5068303;28;20417;-58
2022/06/10 01:58:13;;;;;;;;;;;22.90;94.90;;;;;;5058256;28;19924;-58
2022/06/10 02:00:43;;;;;;;;;;;22.90;94.90;;;;;;5062313;28;20704;-60
2022/06/10 02:03:17;;;;;;;;;;;22.90;94.90;;;;;;5056856;28;19925;-62
2022/06/10 02:05:50;;;;;;;;;;;22.90;94.90;;;;;;5067442;28;20403;-58
2022/06/10 02:08:19;;;;;;;;;;;22.90;94.90;;;;;;5059540;28;19932;-60
2022/06/10 02:10:53;;;;;;;;;;;22.90;94.90;;;;;;5068216;28;19935;-58
2022/06/10 02:13:26;;;;;;;;;;;22.90;94.90;;;;;;5061811;28;20242;-60
2022/06/10 02:15:56;;;;;;;;;;;22.90;94.90;;;;;;5057704;28;20020;-59
2022/06/10 02:18:26;;;;;;;;;;;22.90;94.90;;;;;;5062567;28;19925;-61
2022/06/10 02:20:56;;;;;;;;;;;22.90;94.90;;;;;;5055677;28;19929;-62
2022/06/10 02:23:25;;;;;;;;;;;22.90;94.90;;;;;;5066992;28;19933;-61
2022/06/10 02:25:54;;;;;;;;;;;22.90;94.90;;;;;;5067709;28;19928;-60
2022/06/10 02:28:28;;;;;;;;;;;22.80;95.10;;;;;;5068516;28;19928;-61
2022/06/10 02:30:58;;;;;;;;;;;22.90;94.80;;;;;;5068067;28;19924;-61
2022/06/10 02:33:26;;;;;;;;;;;22.80;94.80;;;;;;5058139;28;19929;-62
2022/06/10 02:35:56;;;;;;;;;;;22.80;94.80;;;;;;5059944;28;19929;-62
2022/06/10 02:38:32;;;;;;;;;;;22.80;94.80;;;;;;5062265;28;19929;-61
2022/06/10 02:41:15;;;;;;;;;;;22.80;94.80;;;;;;5054911;28;19929;-61
2022/06/10 02:43:48;;;;;;;;;;;22.80;94.80;;;;;;5062748;28;20003;-64
2022/06/10 02:46:27;;;;;;;;;;;22.80;94.70;;;;;;5067623;28;19935;-58
2022/06/10 02:49:02;;;;;;;;;;;22.80;94.70;;;;;;5069722;28;19929;-59
2022/06/10 02:51:30;;;;;;;;;;;22.80;94.70;;;;;;5060810;28;19935;-59
2022/06/10 02:53:58;;;;;;;;;;;22.80;94.70;;;;;;5065888;28;19940;-60
2022/06/10 02:56:27;;;;;;;;;;;22.80;94.90;;;;;;5064698;28;19936;-60
2022/06/10 03:02:01;;;;;;;;;;;22.80;94.70;;;;;;5067952;28;19928;-61
2022/06/10 03:04:40;;;;;;;;;;;22.80;94.70;;;;;;5060862;28;20015;-60
2022/06/10 03:07:19;;;;;;;;;;;22.80;94.70;;;;;;5069394;28;19948;-61
2022/06/10 03:09:49;;;;;;;;;;;22.80;94.70;;;;;;5063382;28;19931;-62
2022/06/10 03:12:25;;;;;;;;;;;22.80;94.60;;;;;;5068588;28;20010;-60
2022/06/10 03:15:00;;;;;;;;;;;22.80;94.60;;;;;;5069343;28;20415;-60
2022/06/10 03:17:27;;;;;;;;;;;22.80;94.60;;;;;;5059436;28;19929;-60
2022/06/10 03:20:03;;;;;;;;;;;22.80;94.60;;;;;;5059782;28;19929;-60
2022/06/10 03:22:59;;;;;;;;;;;22.70;94.60;;;;;;5069061;28;19936;-60
2022/06/10 03:25:29;;;;;;;;;;;22.70;94.60;;;;;;5041431;28;19958;-61
2022/06/10 03:27:58;;;;;;;;;;;22.80;94.60;;;;;;5059731;28;19928;-61
2022/06/10 03:30:30;;;;;;;;;;;22.70;94.50;;;;;;5068359;28;19932;-61
2022/06/10 03:33:02;;;;;;;;;;;22.70;94.60;;;;;;5067270;28;19928;-62
2022/06/10 03:35:33;;;;;;;;;;;22.80;94.60;;;;;;5053653;28;19939;-57
2022/06/10 03:38:01;;;;;;;;;;;22.70;94.50;;;;;;5065316;28;19944;-61
2022/06/10 03:40:29;;;;;;;;;;;22.70;94.50;;;;;;5067269;28;19929;-62
2022/06/10 03:42:59;;;;;;;;;;;22.70;94.60;;;;;;5060959;28;19928;-59
2022/06/10 03:45:35;;;;;;;;;;;22.70;94.60;;;;;;5068080;28;19925;-59
2022/06/10 03:48:02;;;;;;;;;;;22.70;94.60;;;;;;5071964;28;20323;-59
2022/06/10 03:50:33;;;;;;;;;;;22.70;94.50;;;;;;5063266;28;19952;-59
2022/06/10 03:53:00;;;;;;;;;;;22.70;94.50;;;;;;5061621;28;19951;-62
2022/06/10 03:55:27;;;;;;;;;;;22.70;94.50;;;;;;5057103;28;19932;-60
2022/06/10 03:57:55;;;;;;;;;;;22.70;94.50;;;;;;5066802;28;19929;-61
2022/06/10 04:00:23;;;;;;;;;;;22.70;94.50;;;;;;5070916;28;19928;-63
2022/06/10 04:02:50;;;;;;;;;;;22.70;94.50;;;;;;5066785;28;19929;-60
2022/06/10 04:05:18;;;;;;;;;;;22.70;94.50;;;;;;5080753;28;19935;-61
2022/06/10 04:07:46;;;;;;;;;;;22.70;94.60;;;;;;5078184;28;19929;-62
2022/06/10 04:10:15;;;;;;;;;;;22.60;94.60;;;;;;5085374;28;19946;-64
2022/06/10 04:12:42;;;;;;;;;;;22.70;94.60;;;;;;5053159;28;19928;-61
2022/06/10 04:15:10;;;;;;;;;;;22.70;94.70;;;;;;5079640;28;20229;-64
2022/06/10 04:17:37;;;;;;;;;;;22.70;94.60;;;;;;5069394;28;20316;-63
2022/06/10 04:20:04;;;;;;;;;;;22.70;94.50;;;;;;5069498;28;20019;-59
2022/06/10 04:22:32;;;;;;;;;;;22.70;94.50;;;;;;5061830;28;19935;-64
2022/06/10 04:24:59;;;;;;;;;;;22.70;94.40;;;;;;5063849;28;19929;-64
2022/06/10 04:27:26;;;;;;;;;;;22.70;94.50;;;;;;5071374;28;19935;-64
2022/06/10 04:29:53;;;;;;;;;;;22.70;94.50;;;;;;5066870;28;20392;-62
2022/06/10 04:32:20;;;;;;;;;;;22.70;94.50;;;;;;5070001;28;19976;-64
2022/06/10 04:34:47;;;;;;;;;;;22.70;94.40;;;;;;5064307;28;19928;-64
2022/06/10 04:37:15;;;;;;;;;;;22.70;94.40;;;;;;5064248;28;19929;-62
2022/06/10 04:39:42;;;;;;;;;;;22.80;94.50;;;;;;5071029;28;19935;-62
2022/06/10 04:42:09;;;;;;;;;;;22.80;94.50;;;;;;5066712;28;19929;-61
2022/06/10 04:44:36;;;;;;;;;;;22.80;94.40;;;;;;5066638;28;19935;-62
2022/06/10 04:47:06;;;;;;;;;;;22.80;94.40;;;;;;5067999;28;20391;-63
2022/06/10 04:49:35;;;;;;;;;;;22.80;94.40;;;;;;5066527;28;20384;-62
2022/06/10 04:52:05;;;;;;;;;;;22.80;94.40;;;;;;5057909;28;19960;-60
2022/06/10 04:54:32;;;;;;;;;;;22.80;94.40;;;;;;5066065;28;19939;-61
2022/06/10 04:56:59;;;;;;;;;;;22.80;94.40;;;;;;5067490;28;19932;-66
2022/06/10 04:59:26;;;;;;;;;;;22.80;94.40;;;;;;5074631;28;19943;-61
2022/06/10 05:01:54;;;;;;;;;;;22.80;94.40;;;;;;5062482;28;20312;-61
2022/06/10 05:04:22;;;;;;;;;;;22.80;94.30;;;;;;5060415;28;19935;-62
2022/06/10 05:06:50;;;;;;;;;;;22.90;94.30;;;;;;5067119;28;19924;-63
2022/06/10 05:09:17;;;;;;;;;;;22.90;94.30;;;;;;5068803;28;19954;-63
2022/06/10 05:11:44;;;;;;;;;;;22.80;94.30;;;;;;5064808;28;19929;-63
2022/06/10 05:14:12;;;;;;;;;;;22.80;94.40;;;;;;5062212;28;19929;-61
2022/06/10 05:16:39;;;;;;;;;;;22.80;94.30;;;;;;5068781;28;19932;-62
2022/06/10 05:19:06;;;;;;;;;;;22.80;94.30;;;;;;5067491;28;19943;-65
2022/06/10 05:21:33;;;;;;;;;;;22.80;94.40;;;;;;5060182;28;19936;-62
2022/06/10 05:24:00;;;;;;;;;;;22.80;94.30;;;;;;5059763;28;19939;-62
2022/06/10 05:26:29;;;;;;;;;;;22.80;94.30;;;;;;5059682;28;20351;-63
2022/06/10 05:28:56;;;;;;;;;;;22.80;94.30;;;;;;5068975;28;19928;-63
2022/06/10 05:31:23;;;;;;;;;;;22.80;94.30;;;;;;5058621;28;19928;-62
2022/06/10 05:36:37;;;;;;;;;;;22.70;94.20;;;;;;5062556;28;19929;-63
2022/06/10 05:39:05;;;;;;;;;;;22.70;94.20;;;;;;5048296;28;19955;-60
2022/06/10 05:44:17;;;;;;;;;;;22.70;94.30;;;;;;5062473;28;20400;-63
2022/06/10 05:46:45;;;;;;;;;;;22.80;94.50;;;;;;5062914;28;20367;-63
2022/06/10 05:49:12;;;;;;;;;;;22.80;94.40;;;;;;5056234;28;20536;-64
2022/06/10 05:51:39;;;;;;;;;;;22.70;94.00;;;;;;5064989;28;19939;-62
2022/06/10 05:54:06;;;;;;;;;;;22.70;93.70;;;;;;5057423;28;19932;-60
2022/06/10 05:56:34;;;;;;;;;;;22.60;92.90;;;;;;5063874;28;20330;-63
2022/06/10 05:59:01;;;;;;;;;;;22.60;92.70;;;;;;5055079;28;20308;-62
2022/06/10 06:01:28;;;;;;;;;;;22.60;92.70;;;;;;5060119;28;19933;-62
2022/06/10 06:03:55;;;;;;;;;;;22.50;92.50;;;;;;5056269;28;19932;-62
2022/06/10 06:06:23;;;;;;;;;;;22.50;92.30;;;;;;5056853;28;19935;-61
2022/06/10 06:08:50;;;;;;;;;;;22.50;92.30;;;;;;5061749;28;19940;-61
2022/06/10 06:11:17;;;;;;;;;;;22.50;92.30;;;;;;5070509;28;19932;-60
2022/06/10 06:13:45;;;;;;;;;;;22.50;92.30;;;;;;5065892;28;19936;-61
2022/06/10 06:16:13;;;;;;;;;;;22.50;92.00;;;;;;5059827;28;19928;-62
2022/06/10 06:18:40;;;;;;;;;;;22.50;91.90;;;;;;5056996;28;20399;-60
2022/06/10 06:21:07;;;;;;;;;;;22.50;91.90;;;;;;5057838;28;19928;-60
2022/06/10 06:23:35;;;;;;;;;;;22.50;91.90;;;;;;5063432;28;19999;-63
2022/06/10 06:26:03;;;;;;;;;;;22.50;91.90;;;;;;5065992;28;19928;-59
2022/06/10 06:28:30;;;;;;;;;;;22.50;92.00;;;;;;5071006;28;19939;-62
2022/06/10 06:30:57;;;;;;;;;;;22.60;92.00;;;;;;5065424;28;20387;-61
2022/06/10 06:33:25;;;;;;;;;;;22.60;92.00;;;;;;5065311;28;19931;-61
2022/06/10 06:35:54;;;;;;;;;;;22.60;92.00;;;;;;5066531;28;19935;-62
2022/06/10 06:38:22;;;;;;;;;;;22.60;92.30;;;;;;5064683;28;19929;-63
2022/06/10 06:40:49;;;;;;;;;;;22.60;92.30;;;;;;5068842;28;19940;-65
2022/06/10 06:43:16;;;;;;;;;;;22.60;92.30;;;;;;5072953;28;20307;-60
2022/06/10 06:45:43;;;;;;;;;;;22.60;92.80;;;;;;5063017;28;20300;-64
2022/06/10 06:48:11;;;;;;;;;;;22.60;92.60;;;;;;5057056;28;19937;-63
2022/06/10 06:50:44;;;;;;;;;;;22.70;92.70;;;;;;5059533;28;19936;-64
2022/06/10 06:53:12;;;;;;;;;;;22.70;92.70;;;;;;5070018;28;19936;-60
2022/06/10 06:55:41;;;;;;;;;;;22.70;92.90;;;;;;5060853;28;19939;-54
2022/06/10 06:58:10;;;;;;;;;;;22.70;93.00;;;;;;5063496;28;19929;-64
2022/06/10 07:00:44;;;;;;;;;;;22.70;92.90;;;;;;5059951;28;19936;-62
2022/06/10 07:03:12;;;;;;;;;;;22.70;93.20;;;;;;5064160;28;19929;-62
2022/06/10 07:05:39;;;;;;;;;;;22.70;93.20;;;;;;5056864;28;19932;-64
2022/06/10 07:08:06;;;;;;;;;;;22.70;93.30;;;;;;5064367;28;19928;-64
2022/06/10 07:10:33;;;;;;;;;;;22.70;93.30;;;;;;5063663;28;19929;-60
2022/06/10 07:13:01;;;;;;;;;;;22.70;93.40;;;;;;5064049;28;19932;-62
2022/06/10 07:15:28;;;;;;;;;;;22.70;93.30;;;;;;5062958;28;19933;-61
2022/06/10 07:17:57;;;;;;;;;;;22.70;93.40;;;;;;5055587;28;19925;-62
2022/06/10 07:20:27;;;;;;;;;;;22.70;93.30;;;;;;5066391;28;19932;-62
2022/06/10 07:22:54;;;;;;;;;;;22.70;93.30;;;;;;5059000;28;19935;-60
2022/06/10 07:25:22;;;;;;;;;;;22.70;93.20;;;;;;5061186;28;19929;-64
2022/06/10 07:27:52;;;;;;;;;;;22.70;93.20;;;;;;5056395;28;19928;-62
2022/06/10 07:30:20;;;;;;;;;;;22.70;93.10;;;;;;5058227;28;19929;-62
2022/06/10 07:32:47;;;;;;;;;;;22.80;93.20;;;;;;5057586;28;19929;-63
2022/06/10 07:35:17;;;;;;;;;;;22.80;93.30;;;;;;5057533;28;19928;-64
2022/06/10 07:37:44;;;;;;;;;;;22.80;95.30;;;;;;5056449;28;19933;-59
2022/06/10 07:41:56;;;;;;;;;;;22.80;96.90;;;;;;5056303;28;19936;-62
2022/06/10 07:43:24;;;;;;;;;;;22.90;96.80;;;;;;5065555;28;20438;-60
2022/06/10 07:45:52;;;;;;;;;;;22.90;96.90;;;;;;5063944;28;20378;-64
2022/06/10 07:48:20;;;;;;;;;;;22.90;96.70;;;;;;5056349;28;20008;-60
2022/06/10 07:50:48;;;;;;;;;;;23.00;96.50;;;;;;5053074;28;20449;-61
2022/06/10 07:53:15;;;;;;;;;;;23.00;96.20;;;;;;5056112;28;19932;-57
2022/06/10 07:55:44;;;;;;;;;;;23.00;95.90;;;;;;5054907;28;20380;-57
2022/06/10 07:58:12;;;;;;;;;;;23.00;95.80;;;;;;5057259;28;19928;-60
2022/06/10 08:00:39;;;;;;;;;;;23.00;95.60;;;;;;5058698;28;19952;-62
2022/06/10 08:03:07;;;;;;;;;;;23.00;95.60;;;;;;5054300;28;19937;-62
2022/06/10 08:05:34;;;;;;;;;;;23.00;95.60;;;;;;5059632;28;19932;-56
2022/06/10 08:08:03;;;;;;;;;;;23.00;96.00;;;;;;5059675;28;19928;-62
2022/06/10 08:10:32;;;;;;;;;;;23.10;95.70;;;;;;5060710;28;19928;-60
2022/06/10 08:12:59;;;;;;;;;;;23.10;95.90;;;;;;5052200;28;19940;-57
2022/06/10 08:15:27;;;;;;;;;;;23.00;95.70;;;;;;5051844;28;20338;-58
2022/06/10 08:17:56;;;;;;;;;;;23.00;95.70;;;;;;5058105;28;19943;-59
2022/06/10 08:22:32;;;;;;;;;;;23.10;96.00;;;;;;5059105;28;19947;-57
2022/06/10 08:23:12;;;;;;;;;;;23.10;96.20;;;;;;5059694;28;20424;-60
2022/06/10 08:25:40;;;;;;;;;;;23.10;95.80;;;;;;5062184;28;20404;-56
2022/06/10 08:28:07;;;;;;;;;;;23.10;95.90;;;;;;5050158;28;19929;-59
2022/06/10 08:30:35;;;;;;;;;;;23.10;95.80;;;;;;5062741;28;19929;-58
2022/06/10 08:33:03;;;;;;;;;;;23.10;95.60;;;;;;5067919;28;19933;-60
2022/06/10 08:35:31;;;;;;;;;;;23.10;95.40;;;;;;5064284;28;20301;-57
2022/06/10 08:37:59;;;;;;;;;;;23.10;95.50;;;;;;5067210;28;20344;-61
2022/06/10 08:40:39;;;;;;;;;;;23.10;95.40;;;;;;5060697;28;19936;-55
2022/06/10 08:43:19;;;;;;;;;;;23.10;95.20;;;;;;5065115;28;20479;-58
2022/06/10 08:45:51;;;;;;;;;;;23.10;95.40;;;;;;5056751;28;20422;-62
2022/06/10 08:48:42;;;;;;;;;;;23.10;95.30;;;;;;5059035;28;19936;-63
2022/06/10 08:51:13;;;;;;;;;;;23.20;95.60;;;;;;5030675;28;19928;-64
2022/06/10 08:54:01;;;;;;;;;;;23.20;95.70;;;;;;5064900;28;19932;-65
2022/06/10 08:56:33;;;;;;;;;;;23.20;95.70;;;;;;5035825;28;19933;-63
2022/06/10 08:59:18;;;;;;;;;;;23.20;95.70;;;;;;5062840;28;19939;-63
2022/06/10 09:02:05;;;;;;;;;;;23.20;95.80;;;;;;5055292;28;19932;-60
2022/06/10 09:04:52;;;;;;;;;;;23.20;96.00;;;;;;5059647;28;19943;-63
2022/06/10 09:07:32;;;;;;;;;;;23.30;96.20;;;;;;5062200;28;19928;-62
2022/06/10 09:10:00;;;;;;;;;;;23.30;96.40;;;;;;5068397;28;19928;-60
2022/06/10 09:12:27;;;;;;;;;;;23.30;96.50;;;;;;5062555;28;19932;-61
2022/06/10 09:14:58;;;;;;;;;;;23.30;96.60;;;;;;5063288;28;19929;-60
2022/06/10 09:17:30;;;;;;;;;;;23.30;96.70;;;;;;5063646;28;19925;-58
2022/06/10 09:20:02;;;;;;;;;;;23.30;96.60;;;;;;5058456;28;20004;-60
2022/06/10 09:22:30;;;;;;;;;;;23.30;96.70;;;;;;5065147;28;19929;-60
2022/06/10 09:25:10;;;;;;;;;;;23.20;96.70;;;;;;5055128;28;19929;-60
2022/06/10 09:27:39;;;;;;;;;;;23.20;96.70;;;;;;5054444;28;19928;-60
2022/06/10 09:30:08;;;;;;;;;;;23.20;96.60;;;;;;5053217;28;20349;-61
2022/06/10 09:32:44;;;;;;;;;;;23.20;96.50;;;;;;5064763;28;20356;-60
2022/06/10 09:35:25;;;;;;;;;;;23.10;96.20;;;;;;5057684;28;20512;-59
2022/06/10 09:37:55;;;;;;;;;;;23.20;96.00;;;;;;5051684;28;19939;-61
2022/06/10 09:40:37;;;;;;;;;;;23.10;95.90;;;;;;5058877;28;19932;-61
2022/06/10 09:43:13;;;;;;;;;;;23.10;95.80;;;;;;5064206;28;19928;-61
2022/06/10 09:45:49;;;;;;;;;;;23.10;95.80;;;;;;5062070;28;19939;-57
2022/06/10 09:48:34;;;;;;;;;;;23.10;95.80;;;;;;5069082;28;19940;-62
2022/06/10 09:51:20;;;;;;;;;;;23.10;95.80;;;;;;5071738;28;19928;-60
2022/06/10 09:54:20;;;;;;;;;;;23.10;95.70;;;;;;5067835;28;19929;-60
2022/06/10 09:57:05;;;;;;;;;;;23.10;95.60;;;;;;5050446;28;20415;-60
2022/06/10 09:59:51;;;;;;;;;;;23.10;95.50;;;;;;5062761;28;20367;-62
2022/06/10 10:02:25;;;;;;;;;;;23.10;95.40;;;;;;5067303;28;19932;-61
2022/06/10 10:05:05;;;;;;;;;;;23.10;95.40;;;;;;5073563;28;19932;-60
2022/06/10 10:07:32;;;;;;;;;;;23.10;95.30;;;;;;5055271;28;20404;-61
2022/06/10 10:09:59;;;;;;;;;;;23.10;95.20;;;;;;5068494;28;19929;-57
2022/06/10 10:12:44;;;;;;;;;;;23.10;95.20;;;;;;5054771;28;19928;-59
2022/06/10 10:15:20;;;;;;;;;;;23.10;95.10;;;;;;5066199;28;20422;-60
2022/06/10 10:17:54;;;;;;;;;;;23.10;95.10;;;;;;5063832;28;19929;-62
2022/06/10 10:20:35;;;;;;;;;;;23.10;95.10;;;;;;5064124;28;20423;-57
2022/06/10 10:23:11;;;;;;;;;;;23.10;95.10;;;;;;5063379;28;19940;-60
2022/06/10 10:25:44;;;;;;;;;;;23.10;95.00;;;;;;5054123;28;19931;-59
2022/06/10 10:28:23;;;;;;;;;;;23.10;95.00;;;;;;5055986;28;19936;-57
2022/06/10 10:31:09;;;;;;;;;;;23.10;94.90;;;;;;5047974;28;19928;-62
2022/06/10 10:33:36;;;;;;;;;;;23.10;94.90;;;;;;5057525;28;20400;-60
2022/06/10 10:36:10;;;;;;;;;;;23.10;94.90;;;;;;5057207;28;19928;-60
2022/06/10 10:38:40;;;;;;;;;;;23.10;94.90;;;;;;5059037;28;19934;-62
2022/06/10 10:41:30;;;;;;;;;;;23.10;94.90;;;;;;5066291;28;19947;-61
2022/06/10 10:43:59;;;;;;;;;;;23.10;94.90;;;;;;5043913;28;20278;-60
2022/06/10 10:46:40;;;;;;;;;;;23.10;94.70;;;;;;5056513;28;19936;-59
2022/06/10 10:49:25;;;;;;;;;;;23.10;94.70;;;;;;5051551;28;19928;-59
2022/06/10 10:51:52;;;;;;;;;;;23.10;94.70;;;;;;5058100;28;19936;-61
2022/06/10 10:54:22;;;;;;;;;;;23.10;94.60;;;;;;5055546;28;19947;-60
2022/06/10 10:56:51;;;;;;;;;;;23.10;94.60;;;;;;5061120;28;19936;-60
2022/06/10 10:59:21;;;;;;;;;;;23.10;94.60;;;;;;5058067;28;19940;-60
2022/06/10 11:01:51;;;;;;;;;;;23.10;94.60;;;;;;5059233;28;19924;-61
2022/06/10 11:04:32;;;;;;;;;;;23.10;94.50;;;;;;5064501;28;19928;-62
2022/06/10 11:07:02;;;;;;;;;;;23.10;94.50;;;;;;5068635;28;19963;-62
2022/06/10 11:09:55;;;;;;;;;;;23.10;94.50;;;;;;5059039;28;19925;-58
2022/06/10 11:12:25;;;;;;;;;;;23.10;94.40;;;;;;5054622;28;19928;-56
2022/06/10 11:15:05;;;;;;;;;;;23.10;94.40;;;;;;5057171;28;19936;-61
2022/06/10 11:17:34;;;;;;;;;;;23.10;94.40;;;;;;5056206;28;19932;-61
2022/06/10 11:20:21;;;;;;;;;;;23.10;94.30;;;;;;5070253;28;19924;-58
2022/06/10 11:22:48;;;;;;;;;;;23.10;94.30;;;;;;5072242;28;19931;-60
2022/06/10 11:25:23;;;;;;;;;;;23.10;94.30;;;;;;5071483;28;20391;-60
2022/06/10 11:27:50;;;;;;;;;;;23.10;94.30;;;;;;5054329;28;19936;-55
2022/06/10 11:30:19;;;;;;;;;;;23.10;94.30;;;;;;5063019;28;19928;-59
2022/06/10 11:32:49;;;;;;;;;;;23.10;94.30;;;;;;5069325;28;20003;-60
2022/06/10 11:35:34;;;;;;;;;;;23.10;94.30;;;;;;5057448;28;19925;-57
2022/06/10 11:38:10;;;;;;;;;;;23.10;94.30;;;;;;5060386;28;19961;-60
2022/06/10 11:40:40;;;;;;;;;;;23.10;94.30;;;;;;5066217;28;19929;-59
2022/06/10 11:43:15;;;;;;;;;;;23.10;94.30;;;;;;5054786;28;19928;-60
2022/06/10 11:45:48;;;;;;;;;;;23.10;94.30;;;;;;5055742;28;19952;-57
2022/06/10 11:48:26;;;;;;;;;;;23.10;94.30;;;;;;5039486;28;19931;-61
2022/06/10 11:50:57;;;;;;;;;;;23.10;94.30;;;;;;5059051;28;19955;-59
2022/06/10 11:53:38;;;;;;;;;;;23.10;94.30;;;;;;5055059;28;19928;-60
2022/06/10 12:01:51;;;;;;;;;;;23.20;95.30;;;;;;5060191;28;20299;-62
2022/06/10 12:04:21;;;;;;;;;;;23.20;95.70;;;;;;5068198;28;19935;-66
2022/06/10 12:06:51;;;;;;;;;;;23.20;95.90;;;;;;5066034;28;19929;-63
2022/06/10 12:09:27;;;;;;;;;;;23.30;95.90;;;;;;5067471;28;19932;-61
2022/06/10 12:12:13;;;;;;;;;;;23.30;95.90;;;;;;5062900;28;20027;-67
2022/06/10 12:14:41;;;;;;;;;;;23.30;95.80;;;;;;5056809;28;19929;-66
2022/06/10 12:17:25;;;;;;;;;;;23.40;96.20;;;;;;5056557;28;19929;-66
2022/06/10 12:19:55;;;;;;;;;;;23.40;96.30;;;;;;5066144;28;19929;-65
2022/06/10 12:22:24;;;;;;;;;;;23.40;96.50;;;;;;5070128;28;20481;-64
2022/06/10 12:24:51;;;;;;;;;;;23.40;96.70;;;;;;5069387;28;19940;-65
2022/06/10 12:27:54;;;;;;;;;;;23.40;96.70;;;;;;5065973;28;19939;-63
2022/06/10 12:30:40;;;;;;;;;;;23.50;96.90;;;;;;4998374;28;19930;-58
2022/06/10 12:33:17;;;;;;;;;;;23.50;96.90;;;;;;5061061;28;19940;-62
2022/06/10 12:35:45;;;;;;;;;;;23.50;96.90;;;;;;5063988;28;19929;-60
2022/06/10 12:38:20;;;;;;;;;;;23.50;97.00;;;;;;5069026;28;19996;-62
2022/06/10 12:40:53;;;;;;;;;;;23.50;97.00;;;;;;5068282;28;19936;-60
2022/06/10 12:43:23;;;;;;;;;;;23.50;97.10;;;;;;5066745;28;19940;-59
2022/06/10 12:45:51;;;;;;;;;;;23.50;97.10;;;;;;5065281;28;19940;-61
2022/06/10 12:48:26;;;;;;;;;;;23.50;97.20;;;;;;5064105;28;19932;-60
2022/06/10 12:50:55;;;;;;;;;;;23.60;97.40;;;;;;5069461;28;20319;-59
2022/06/10 12:53:22;;;;;;;;;;;23.60;97.50;;;;;;5068756;28;19928;-60
2022/06/10 12:55:54;;;;;;;;;;;23.60;97.60;;;;;;5072291;28;20106;-61
2022/06/10 12:58:37;;;;;;;;;;;23.70;97.60;;;;;;5071843;28;19952;-61
2022/06/10 13:01:30;;;;;;;;;;;23.70;97.70;;;;;;5062132;28;19933;-59
2022/06/10 13:04:01;;;;;;;;;;;23.70;97.70;;;;;;5033102;28;19929;-61
2022/06/10 13:06:43;;;;;;;;;;;23.70;97.70;;;;;;5066379;28;19936;-56
2022/06/10 13:09:11;;;;;;;;;;;23.70;97.70;;;;;;5054279;28;19928;-61
2022/06/10 13:11:38;;;;;;;;;;;23.70;97.70;;;;;;5060197;28;19928;-61
2022/06/10 13:14:12;;;;;;;;;;;23.70;97.80;;;;;;5056156;28;19928;-60
2022/06/10 13:16:42;;;;;;;;;;;23.70;97.80;;;;;;5063542;28;20386;-61
2022/06/10 13:19:27;;;;;;;;;;;23.70;97.90;;;;;;5064623;28;19925;-61
2022/06/10 13:21:55;;;;;;;;;;;23.70;97.90;;;;;;5065647;28;19955;-61
2022/06/10 13:24:22;;;;;;;;;;;23.70;97.70;;;;;;5061964;28;19935;-62
2022/06/10 13:26:51;;;;;;;;;;;23.70;97.60;;;;;;5060003;28;19929;-63
2022/06/10 13:29:20;;;;;;;;;;;23.70;97.60;;;;;;5066729;28;19932;-68
2022/06/10 13:31:55;;;;;;;;;;;23.70;97.70;;;;;;5048482;28;19935;-62
2022/06/10 13:34:25;;;;;;;;;;;23.80;97.50;;;;;;5064508;28;19936;-63
2022/06/10 13:36:57;;;;;;;;;;;23.80;97.30;;;;;;5059522;28;19936;-62
2022/06/10 13:39:30;;;;;;;;;;;23.90;97.20;;;;;;5059018;28;19932;-61
2022/06/10 13:41:58;;;;;;;;;;;23.90;97.00;;;;;;5062221;28;20430;-63
2022/06/10 13:44:28;;;;;;;;;;;24.00;96.90;;;;;;5067343;28;19929;-63
2022/06/10 13:46:56;;;;;;;;;;;24.00;96.80;;;;;;5066278;28;19939;-62
2022/06/10 13:52:33;;;;;;;;;;;24.00;96.70;;;;;;5064928;28;19935;-63
2022/06/10 13:55:35;;;;;;;;;;;24.00;96.60;;;;;;5062863;28;20014;-61
2022/06/10 13:58:03;;;;;;;;;;;24.00;96.80;;;;;;5026824;28;19933;-61
2022/06/10 14:00:32;;;;;;;;;;;24.00;96.40;;;;;;5057140;28;19928;-63
2022/06/10 14:02:59;;;;;;;;;;;24.00;96.40;;;;;;5055497;28;19983;-64
2022/06/10 14:05:28;;;;;;;;;;;24.00;96.30;;;;;;5065097;28;19933;-62
2022/06/10 14:07:59;;;;;;;;;;;24.00;96.40;;;;;;5061704;28;20412;-61
2022/06/10 14:10:28;;;;;;;;;;;24.00;96.30;;;;;;5060753;28;19981;-64
2022/06/10 14:12:58;;;;;;;;;;;24.20;96.20;;;;;;5065977;28;19928;-59
2022/06/10 14:15:28;;;;;;;;;;;24.20;96.00;;;;;;5066655;28;19936;-62
2022/06/10 14:17:58;;;;;;;;;;;24.20;95.90;;;;;;5068605;28;19928;-60
2022/06/10 14:20:28;;;;;;;;;;;24.30;95.80;;;;;;5061923;28;19936;-58
2022/06/10 14:23:04;;;;;;;;;;;24.40;95.60;;;;;;5061569;28;19933;-63
2022/06/10 14:25:32;;;;;;;;;;;24.40;95.20;;;;;;5065106;28;19931;-60
2022/06/10 14:28:00;;;;;;;;;;;24.50;95.00;;;;;;5061531;28;19939;-60
2022/06/10 14:30:42;;;;;;;;;;;24.50;94.60;;;;;;5059456;28;19929;-57
2022/06/10 14:33:30;;;;;;;;;;;24.50;94.30;;;;;;5057288;28;20303;-61
2022/06/10 14:36:10;;;;;;;;;;;24.50;93.90;;;;;;5060973;28;19936;-58
2022/06/10 14:38:38;;;;;;;;;;;24.50;93.50;;;;;;5063958;28;19929;-60
2022/06/10 14:41:07;;;;;;;;;;;24.50;93.30;;;;;;5067886;28;19955;-62
2022/06/10 14:43:36;;;;;;;;;;;24.50;93.20;;;;;;5067710;28;19939;-61
2022/06/10 14:46:16;;;;;;;;;;;24.50;93.00;;;;;;5059349;28;19932;-59
2022/06/10 14:48:44;;;;;;;;;;;24.50;92.90;;;;;;5056565;28;19929;-59
2022/06/10 14:51:16;;;;;;;;;;;24.50;92.90;;;;;;5065281;28;19936;-61
2022/06/10 14:54:00;;;;;;;;;;;24.50;92.50;;;;;;5062142;28;19928;-61
2022/06/10 14:56:27;;;;;;;;;;;24.50;92.30;;;;;;5069608;28;19943;-60
2022/06/10 14:58:56;;;;;;;;;;;24.50;92.20;;;;;;5063860;28;20217;-60
2022/06/10 15:01:26;;;;;;;;;;;24.50;92.30;;;;;;5067603;28;19939;-59